createdAt,value
2023-03-06T00:00:29.734Z,99789.30
2023-03-06T00:03:18.695Z,99787.58
2023-03-06T00:05:50.763Z,99785.52
2023-03-06T00:08:22.488Z,99784.31
2023-03-06T00:10:54.306Z,99782.96
2023-03-06T00:13:26.756Z,99782.98
2023-03-06T00:16:01.140Z,99783.52
2023-03-06T00:18:32.932Z,99784.91
2023-03-06T00:21:07.290Z,99781.70
2023-03-06T00:23:39.286Z,99779.85
2023-03-06T00:26:11.322Z,99787.23
2023-03-06T00:28:44.505Z,99787.21
2023-03-06T00:31:16.219Z,99787.39
2023-03-06T00:33:48.022Z,99787.20
2023-03-06T00:36:19.928Z,99780.69
2023-03-06T00:38:51.675Z,99782.38
2023-03-06T00:41:23.584Z,99778.27
2023-03-06T00:43:55.353Z,99779.98
2023-03-06T00:46:27.070Z,99778.79
2023-03-06T00:48:58.789Z,99777.45
2023-03-06T00:51:30.587Z,99778.84
2023-03-06T00:54:02.325Z,99779.89
2023-03-06T00:56:34.049Z,99777.85
2023-03-06T00:59:05.796Z,99773.41
2023-03-06T01:01:37.624Z,99773.39
2023-03-06T01:04:09.486Z,99772.02
2023-03-06T01:06:41.286Z,99769.80
2023-03-06T01:09:12.965Z,99769.79
2023-03-06T01:11:44.681Z,99770.64
2023-03-06T01:14:19.030Z,99767.05
2023-03-06T01:16:50.907Z,99767.07
2023-03-06T01:19:22.689Z,99770.69
2023-03-06T01:21:54.312Z,99774.46
2023-03-06T01:24:26.731Z,99769.53
2023-03-06T01:27:01.342Z,99771.59
2023-03-06T01:29:33.119Z,99770.06
2023-03-06T01:32:04.949Z,99769.22
2023-03-06T01:34:36.611Z,99768.53
2023-03-06T01:37:08.351Z,99769.38
2023-03-06T01:39:40.054Z,99768.85
2023-03-06T01:42:11.812Z,99768.67
2023-03-06T01:45:05.048Z,99770.55
2023-03-06T01:47:36.704Z,99768.52
2023-03-06T01:50:13.004Z,99766.66
2023-03-06T01:52:48.213Z,99764.60
2023-03-06T01:55:23.095Z,99763.25
2023-03-06T01:57:57.672Z,99764.46
2023-03-06T02:00:31.128Z,99762.58
2023-03-06T02:03:07.523Z,99762.41
2023-03-06T02:05:43.394Z,99756.08
2023-03-06T02:08:18.499Z,99756.40
2023-03-06T02:10:57.200Z,99754.18
2023-03-06T02:13:29.141Z,99756.58
2023-03-06T02:16:01.409Z,99756.92
2023-03-06T02:18:33.132Z,99756.06
2023-03-06T02:21:06.956Z,99753.83
2023-03-06T02:23:48.614Z,99751.65
2023-03-06T02:26:21.096Z,99755.06
2023-03-06T02:28:53.359Z,99756.42
2023-03-06T02:31:27.869Z,99754.55
2023-03-06T02:34:08.690Z,99754.55
2023-03-06T02:36:44.364Z,99756.94
2023-03-06T02:39:18.568Z,99754.55
2023-03-06T02:41:50.649Z,99755.93
2023-03-06T02:44:23.408Z,99752.86
2023-03-06T02:46:55.482Z,99755.95
2023-03-06T02:49:27.492Z,99751.34
2023-03-06T02:51:59.216Z,99754.08
2023-03-06T02:54:31.157Z,99747.94
2023-03-06T02:57:02.954Z,99748.79
2023-03-06T02:59:35.989Z,99746.55
2023-03-06T03:02:09.182Z,99748.42
2023-03-06T03:04:41.026Z,99749.80
2023-03-06T03:07:13.582Z,99753.21
2023-03-06T03:09:46.128Z,99751.67
2023-03-06T03:12:18.801Z,99756.30
2023-03-06T03:14:50.478Z,99755.63
2023-03-06T03:17:22.230Z,99757.01
2023-03-06T03:19:54.075Z,99759.73
2023-03-06T03:22:26.025Z,99759.75
2023-03-06T03:24:57.765Z,99761.98
2023-03-06T03:27:29.561Z,99759.58
2023-03-06T03:30:01.921Z,99754.27
2023-03-06T03:32:34.205Z,99759.07
2023-03-06T03:35:07.215Z,99757.70
2023-03-06T03:37:40.054Z,99755.98
2023-03-06T03:40:14.015Z,99756.66
2023-03-06T03:42:45.706Z,99756.34
2023-03-06T03:45:17.886Z,99756.85
2023-03-06T03:47:49.898Z,99755.48
2023-03-06T03:50:22.198Z,99754.30
2023-03-06T03:52:54.128Z,99749.34
2023-03-06T03:55:25.880Z,99747.64
2023-03-06T03:57:58.017Z,99747.81
2023-03-06T04:00:29.782Z,99747.30
2023-03-06T04:03:08.516Z,99741.33
2023-03-06T04:05:43.315Z,99742.52
2023-03-06T04:08:16.207Z,99739.79
2023-03-06T04:10:49.850Z,99743.72
2023-03-06T04:13:22.318Z,99738.77
2023-03-06T04:15:55.727Z,99739.28
2023-03-06T04:18:28.595Z,99738.60
2023-03-06T04:21:03.201Z,99742.19
2023-03-06T04:23:35.223Z,99739.45
2023-03-06T04:26:08.095Z,99732.11
2023-03-06T04:28:39.874Z,99736.38
2023-03-06T04:31:13.820Z,99734.33
2023-03-06T04:33:45.858Z,99734.51
2023-03-06T04:36:27.090Z,99733.65
2023-03-06T04:39:00.872Z,99730.59
2023-03-06T04:41:33.099Z,99728.55
2023-03-06T04:44:04.857Z,99727.68
2023-03-06T04:46:37.005Z,99730.24
2023-03-06T04:49:08.719Z,99726.48
2023-03-06T04:51:40.443Z,99730.23
2023-03-06T04:54:12.456Z,99726.98
2023-03-06T04:56:44.364Z,99727.16
2023-03-06T04:59:16.075Z,99724.77
2023-03-06T05:01:47.857Z,99727.15
2023-03-06T05:04:19.629Z,99723.91
2023-03-06T05:06:51.546Z,99726.13
2023-03-06T05:09:23.215Z,99724.41
2023-03-06T05:11:54.968Z,99730.89
2023-03-06T05:14:26.911Z,99732.41
2023-03-06T05:16:58.704Z,99735.63
2023-03-06T05:19:31.065Z,99734.59
2023-03-06T05:22:02.765Z,99734.03
2023-03-06T05:24:34.453Z,99733.01
2023-03-06T05:27:06.529Z,99729.77
2023-03-06T05:29:38.224Z,99728.77
2023-03-06T05:32:10.692Z,99727.61
2023-03-06T05:34:43.313Z,99727.63
2023-03-06T05:37:15.078Z,99724.40
2023-03-06T05:39:46.846Z,99723.39
2023-03-06T05:42:18.903Z,99719.48
2023-03-06T05:44:50.730Z,99719.66
2023-03-06T05:47:22.410Z,99723.57
2023-03-06T05:49:54.224Z,99728.34
2023-03-06T05:52:26.015Z,99728.17
2023-03-06T05:54:57.825Z,99727.69
2023-03-06T05:57:29.646Z,99732.95
2023-03-06T06:00:01.385Z,99732.95
2023-03-06T06:02:33.392Z,99732.62
2023-03-06T06:05:05.495Z,99734.16
2023-03-06T06:07:37.220Z,99733.64
2023-03-06T06:10:10.874Z,99739.45
2023-03-06T06:12:42.625Z,99741.32
2023-03-06T06:15:15.438Z,99738.77
2023-03-06T06:17:47.202Z,99739.97
2023-03-06T06:20:19.354Z,99740.31
2023-03-06T06:22:51.034Z,99742.02
2023-03-06T06:25:22.785Z,99740.80
2023-03-06T06:27:57.849Z,99741.77
2023-03-06T06:30:32.326Z,99736.55
2023-03-06T06:33:04.014Z,99735.80
2023-03-06T06:35:39.002Z,99736.27
2023-03-06T06:38:10.676Z,99738.52
2023-03-06T06:40:42.371Z,99732.35
2023-03-06T06:43:14.083Z,99732.88
2023-03-06T06:45:45.964Z,99727.90
2023-03-06T06:48:18.091Z,99726.67
2023-03-06T06:50:57.728Z,99726.28
2023-03-06T06:53:29.461Z,99724.12
2023-03-06T06:56:01.910Z,99725.66
2023-03-06T06:58:33.647Z,99727.75
2023-03-06T07:01:09.070Z,99721.45
2023-03-06T07:03:40.885Z,99723.23
2023-03-06T07:06:12.697Z,99724.02
2023-03-06T07:08:44.405Z,99722.43
2023-03-06T07:11:18.210Z,99722.05
2023-03-06T07:13:50.096Z,99719.67
2023-03-06T07:16:21.845Z,99719.81
2023-03-06T07:18:53.543Z,99716.83
2023-03-06T07:21:25.326Z,99715.82
2023-03-06T07:23:57.728Z,99709.94
2023-03-06T07:26:32.138Z,99701.15
2023-03-06T07:29:06.214Z,99694.14
2023-03-06T07:31:37.841Z,99690.70
2023-03-06T07:34:10.664Z,99690.85
2023-03-06T07:36:42.570Z,99691.04
2023-03-06T07:39:14.248Z,99693.65
2023-03-06T07:41:45.975Z,99695.51
2023-03-06T07:44:18.210Z,99699.84
2023-03-06T07:46:50.051Z,99695.08
2023-03-06T07:49:21.758Z,99695.35
2023-03-06T07:51:53.462Z,99694.14
2023-03-06T07:54:25.270Z,99698.11
2023-03-06T07:56:57.009Z,99701.52
2023-03-06T07:59:28.803Z,99705.35
2023-03-06T08:02:00.723Z,99708.88
2023-03-06T08:04:32.462Z,99708.83
2023-03-06T08:07:04.184Z,99704.73
2023-03-06T08:09:36.797Z,99705.02
2023-03-06T08:12:09.492Z,99705.46
2023-03-06T08:14:41.252Z,99703.52
2023-03-06T08:17:12.994Z,99705.34
2023-03-06T08:19:44.755Z,99705.70
2023-03-06T08:22:16.415Z,99708.25
2023-03-06T08:24:48.258Z,99706.14
2023-03-06T08:27:20.012Z,99703.23
2023-03-06T08:29:51.677Z,99703.65
2023-03-06T08:32:23.774Z,99701.49
2023-03-06T08:34:55.721Z,99704.69
2023-03-06T08:37:27.590Z,99705.66
2023-03-06T08:39:59.562Z,99701.00
2023-03-06T08:42:31.328Z,99699.44
2023-03-06T08:45:03.070Z,99689.18
2023-03-06T08:47:34.814Z,99690.83
2023-03-06T08:50:06.930Z,99687.25
2023-03-06T08:52:38.624Z,99688.39
2023-03-06T08:55:15.069Z,99687.03
2023-03-06T08:57:46.948Z,99685.11
2023-03-06T09:00:21.224Z,99685.13
2023-03-06T09:02:52.969Z,99683.38
2023-03-06T09:05:25.084Z,99683.80
2023-03-06T09:07:56.914Z,99685.98
2023-03-06T09:10:29.542Z,99683.06
2023-03-06T09:13:01.314Z,99685.50
2023-03-06T09:15:33.339Z,99681.04
2023-03-06T09:18:05.384Z,99674.77
2023-03-06T09:20:37.178Z,99669.00
2023-03-06T09:23:09.005Z,99668.76
2023-03-06T09:25:40.687Z,99672.22
2023-03-06T09:28:12.471Z,99668.32
2023-03-06T09:30:44.422Z,99666.63
2023-03-06T09:33:16.395Z,99664.70
2023-03-06T09:35:50.974Z,99669.54
2023-03-06T09:38:24.177Z,99665.43
2023-03-06T09:43:40.492Z,99664.42
2023-03-06T09:46:23.382Z,99658.50
2023-03-06T09:49:10.512Z,99658.41
2023-03-06T09:51:52.708Z,99657.05
2023-03-06T09:54:30.090Z,99654.96
2023-03-06T09:57:01.874Z,99652.90
2023-03-06T09:59:34.416Z,99645.61
2023-03-06T10:02:15.899Z,99647.30
2023-03-06T10:04:51.409Z,99643.41
2023-03-06T10:07:25.249Z,99639.52
2023-03-06T10:10:00.626Z,99639.59
2023-03-06T10:12:36.774Z,99637.61
2023-03-06T10:15:17.657Z,99638.36
2023-03-06T10:17:49.828Z,99641.81
2023-03-06T10:20:24.690Z,99641.44
2023-03-06T10:23:05.580Z,99638.64
2023-03-06T10:25:42.263Z,99636.45
2023-03-06T10:28:19.014Z,99631.58
2023-03-06T10:30:55.495Z,99633.27
2023-03-06T10:33:38.970Z,99632.31
2023-03-06T10:36:13.348Z,99628.21
2023-03-06T10:38:45.864Z,99624.67
2023-03-06T10:41:25.086Z,99619.77
2023-03-06T10:44:24.137Z,99620.06
2023-03-06T10:46:56.940Z,99622.48
2023-03-06T10:49:35.133Z,99621.75
2023-03-06T10:52:20.347Z,99624.73
2023-03-06T10:54:52.656Z,99619.40
2023-03-06T10:57:28.456Z,99618.13
2023-03-06T11:00:02.556Z,99617.44
2023-03-06T11:02:36.739Z,99617.40
2023-03-06T11:05:19.011Z,99607.59
2023-03-06T11:07:59.212Z,99603.17
2023-03-06T11:10:32.264Z,99599.70
2023-03-06T11:13:07.506Z,99601.55
2023-03-06T11:15:39.239Z,99595.57
2023-03-06T11:18:31.074Z,99591.56
2023-03-06T11:21:04.160Z,99597.14
2023-03-06T11:23:42.593Z,99595.69
2023-03-06T11:26:33.821Z,99585.16
2023-03-06T11:29:19.296Z,99585.39
2023-03-06T11:31:54.000Z,99584.81
2023-03-06T11:34:36.181Z,99580.88
2023-03-06T11:37:11.410Z,99574.15
2023-03-06T11:39:45.223Z,99572.90
2023-03-06T11:42:21.810Z,99566.61
2023-03-06T11:44:57.676Z,99563.36
2023-03-06T11:47:33.076Z,99562.70
2023-03-06T11:50:16.849Z,99558.41
2023-03-06T11:52:52.277Z,99553.97
2023-03-06T11:55:31.880Z,99544.79
2023-03-06T11:58:17.776Z,99536.98
2023-03-06T12:00:54.112Z,99536.82
2023-03-06T12:03:50.664Z,99531.09
2023-03-06T12:06:28.190Z,99527.45
2023-03-06T12:09:07.067Z,99528.54
2023-03-06T12:11:45.388Z,99527.63
2023-03-06T12:14:26.266Z,99523.16
2023-03-06T12:17:00.343Z,99520.67
2023-03-06T12:19:45.570Z,99522.63
2023-03-06T12:22:26.114Z,99517.84
2023-03-06T12:25:21.868Z,99519.63
2023-03-06T12:27:59.985Z,99519.36
2023-03-06T12:31:02.394Z,99520.40
2023-03-06T12:33:40.874Z,99520.30
2023-03-06T12:36:22.761Z,99520.21
2023-03-06T12:39:03.318Z,99519.39
2023-03-06T12:41:44.631Z,99517.36
2023-03-06T12:44:39.183Z,99511.57
2023-03-06T12:47:13.145Z,99509.73
2023-03-06T12:49:48.629Z,99512.30
2023-03-06T12:52:30.158Z,99501.88
2023-03-06T12:55:05.956Z,99498.96
2023-03-06T12:57:37.665Z,99498.81
2023-03-06T13:00:13.215Z,99494.34
2023-03-06T13:03:04.907Z,99492.31
2023-03-06T13:06:24.407Z,99493.20
2023-03-06T13:09:05.479Z,99487.28
2023-03-06T13:12:21.936Z,99489.69
2023-03-06T13:14:56.281Z,99488.84
2023-03-06T13:17:36.603Z,99488.23
2023-03-06T13:20:35.146Z,99483.80
2023-03-06T13:23:44.221Z,99475.69
2023-03-06T13:26:52.220Z,99475.48
2023-03-06T13:29:57.740Z,99470.48
2023-03-06T13:32:34.959Z,99465.48
2023-03-06T13:35:48.739Z,99461.02
2023-03-06T13:38:54.790Z,99456.20
2023-03-06T13:41:58.550Z,99454.66
2023-03-06T13:44:51.129Z,99447.73
2023-03-06T13:47:39.723Z,99444.33
2023-03-06T13:50:31.807Z,99442.48
2023-03-06T13:53:21.088Z,99444.77
2023-03-06T13:55:58.810Z,99445.38
2023-03-06T13:58:46.090Z,99448.52
2023-03-06T14:01:32.450Z,99449.55
2023-03-06T14:04:28.273Z,99456.93
2023-03-06T14:07:21.875Z,99453.46
2023-03-06T14:10:02.024Z,99450.50
2023-03-06T14:12:36.106Z,99443.11
2023-03-06T14:15:16.345Z,99437.13
2023-03-06T14:17:55.944Z,99436.94
2023-03-06T14:20:33.564Z,99433.86
2023-03-06T14:23:26.078Z,99435.53
2023-03-06T14:26:02.077Z,99433.73
2023-03-06T14:28:34.752Z,99435.70
2023-03-06T14:31:08.018Z,99430.04
2023-03-06T14:33:45.366Z,99430.83
2023-03-06T14:36:19.921Z,99425.91
2023-03-06T14:38:55.572Z,99428.66
2023-03-06T14:41:28.873Z,99428.72
2023-03-06T14:44:19.197Z,99416.62
2023-03-06T14:46:52.231Z,99414.13
2023-03-06T14:49:25.678Z,99417.98
2023-03-06T14:52:00.565Z,99418.45
2023-03-06T14:54:34.466Z,99418.77
2023-03-06T14:57:08.926Z,99417.50
2023-03-06T14:59:43.856Z,99413.55
2023-03-06T15:02:21.808Z,99416.33
2023-03-06T15:04:54.955Z,99418.31
2023-03-06T15:07:28.987Z,99416.02
2023-03-06T15:10:00.891Z,99416.31
2023-03-06T15:12:38.702Z,99419.06
2023-03-06T15:15:28.674Z,99419.70
2023-03-06T15:18:00.391Z,99422.41
2023-03-06T15:20:42.419Z,99428.85
2023-03-06T15:23:23.601Z,99429.08
2023-03-06T15:25:58.194Z,99425.23
2023-03-06T15:28:35.855Z,99425.92
2023-03-06T15:31:20.567Z,99426.27
2023-03-06T15:34:23.337Z,99424.80
2023-03-06T15:36:59.661Z,99424.64
2023-03-06T15:39:34.574Z,99424.26
2023-03-06T15:42:18.232Z,99422.32
2023-03-06T15:44:54.662Z,99424.86
2023-03-06T15:47:26.820Z,99418.85
2023-03-06T15:49:58.510Z,99417.99
2023-03-06T15:52:30.156Z,99422.83
2023-03-06T15:55:01.827Z,99425.27
2023-03-06T15:57:33.882Z,99423.52
2023-03-06T16:00:21.702Z,99421.89
2023-03-06T16:02:58.880Z,99428.23
2023-03-06T16:05:31.200Z,99424.80
2023-03-06T16:08:03.594Z,99418.59
2023-03-06T16:10:39.006Z,99422.64
2023-03-06T16:13:14.051Z,99425.44
2023-03-06T16:15:49.727Z,99427.36
2023-03-06T16:18:21.494Z,99423.89
2023-03-06T16:20:53.240Z,99422.80
2023-03-06T16:23:24.909Z,99429.23
2023-03-06T16:25:56.569Z,99429.30
2023-03-06T16:28:28.199Z,99425.23
2023-03-06T16:30:59.892Z,99425.16
2023-03-06T16:33:31.684Z,99424.36
2023-03-06T16:36:03.476Z,99421.64
2023-03-06T16:38:35.165Z,99426.02
2023-03-06T16:41:07.195Z,99426.02
2023-03-06T16:43:38.863Z,99426.42
2023-03-06T16:46:12.914Z,99424.98
2023-03-06T16:48:44.660Z,99426.88
2023-03-06T16:51:18.767Z,99425.13
2023-03-06T16:53:51.197Z,99427.63
2023-03-06T16:56:22.889Z,99429.64
2023-03-06T16:58:54.598Z,99426.59
2023-03-06T17:01:26.326Z,99434.89
2023-03-06T17:03:58.152Z,99432.10
2023-03-06T17:06:30.357Z,99427.58
2023-03-06T17:09:02.161Z,99431.48
2023-03-06T17:11:33.872Z,99426.86
2023-03-06T17:14:06.148Z,99433.27
2023-03-06T17:16:40.360Z,99429.61
2023-03-06T17:19:15.341Z,99428.48
2023-03-06T17:21:47.206Z,99432.43
2023-03-06T17:24:18.861Z,99435.77
2023-03-06T17:26:50.556Z,99437.36
2023-03-06T17:29:22.284Z,99433.63
2023-03-06T17:31:53.964Z,99434.62
2023-03-06T17:34:25.677Z,99437.60
2023-03-06T17:36:57.581Z,99438.30
2023-03-06T17:39:34.537Z,99437.92
2023-03-06T17:42:07.335Z,99434.45
2023-03-06T17:44:41.483Z,99434.87
2023-03-06T17:47:13.592Z,99435.91
2023-03-06T17:49:45.401Z,99437.25
2023-03-06T17:52:17.143Z,99437.31
2023-03-06T17:54:48.856Z,99436.45
2023-03-06T17:57:20.568Z,99435.63
2023-03-06T17:59:53.093Z,99432.68
2023-03-06T18:02:24.828Z,99428.30
2023-03-06T18:04:58.465Z,99425.92
2023-03-06T18:07:30.157Z,99428.52
2023-03-06T18:10:01.807Z,99428.59
2023-03-06T18:12:33.513Z,99429.88
2023-03-06T18:15:05.661Z,99430.55
2023-03-06T18:17:38.607Z,99429.49
2023-03-06T18:20:12.526Z,99429.30
2023-03-06T18:22:44.206Z,99428.27
2023-03-06T18:25:15.863Z,99426.96
2023-03-06T18:27:47.670Z,99423.73
2023-03-06T18:30:20.186Z,99424.76
2023-03-06T18:32:51.874Z,99430.08
2023-03-06T18:35:23.757Z,99430.89
2023-03-06T18:37:55.587Z,99429.90
2023-03-06T18:40:27.312Z,99429.17
2023-03-06T18:42:59.148Z,99430.00
2023-03-06T18:45:30.814Z,99428.23
2023-03-06T18:48:04.936Z,99429.66
2023-03-06T18:50:37.083Z,99430.61
2023-03-06T18:53:08.768Z,99428.14
2023-03-06T18:55:40.449Z,99428.27
2023-03-06T18:58:12.160Z,99423.38
2023-03-06T19:00:43.878Z,99419.23
2023-03-06T19:03:15.705Z,99425.55
2023-03-06T19:05:48.736Z,99418.80
2023-03-06T19:08:20.658Z,99418.77
2023-03-06T19:10:52.353Z,99422.64
2023-03-06T19:13:24.020Z,99416.24
2023-03-06T19:15:57.055Z,99414.94
2023-03-06T19:18:29.639Z,99414.45
2023-03-06T19:21:11.751Z,99416.23
2023-03-06T19:23:43.666Z,99410.59
2023-03-06T19:26:15.592Z,99415.59
2023-03-06T19:28:47.843Z,99420.34
2023-03-06T19:31:21.225Z,99417.76
2023-03-06T19:33:54.051Z,99418.18
2023-03-06T19:36:28.787Z,99416.68
2023-03-06T19:39:01.915Z,99409.23
2023-03-06T19:41:34.204Z,99412.73
2023-03-06T19:44:06.866Z,99410.73
2023-03-06T19:46:40.685Z,99411.71
2023-03-06T19:49:18.042Z,99408.52
2023-03-06T19:51:49.807Z,99408.27
2023-03-06T19:54:23.461Z,99408.55
2023-03-06T19:56:55.259Z,99410.48
2023-03-06T19:59:26.945Z,99403.80
2023-03-06T20:01:58.596Z,99402.02
2023-03-06T20:04:34.215Z,99399.80
2023-03-06T20:07:06.099Z,99399.61
2023-03-06T20:09:38.563Z,99401.04
2023-03-06T20:12:11.241Z,99399.18
2023-03-06T20:14:43.152Z,99396.29
2023-03-06T20:17:15.493Z,99404.83
2023-03-06T20:19:47.352Z,99402.02
2023-03-06T20:22:19.606Z,99402.05
2023-03-06T20:24:51.340Z,99402.45
2023-03-06T20:27:23.086Z,99399.48
2023-03-06T20:29:54.854Z,99397.46
2023-03-06T20:32:26.627Z,99399.08
2023-03-06T20:34:58.369Z,99398.08
2023-03-06T20:37:30.088Z,99398.04
2023-03-06T20:40:01.824Z,99395.89
2023-03-06T20:42:33.634Z,99394.96
2023-03-06T20:45:05.938Z,99395.86
2023-03-06T20:47:37.819Z,99395.66
2023-03-06T20:50:10.906Z,99397.63
2023-03-06T20:52:42.596Z,99394.05
2023-03-06T20:55:14.500Z,99393.58
2023-03-06T20:57:46.358Z,99395.84
2023-03-06T21:00:21.015Z,99395.77
2023-03-06T21:02:53.100Z,99398.83
2023-03-06T21:05:25.116Z,99398.08
2023-03-06T21:07:56.977Z,99395.16
2023-03-06T21:10:30.674Z,99394.08
2023-03-06T21:13:02.438Z,99398.75
2023-03-06T21:15:34.167Z,99399.67
2023-03-06T21:18:06.482Z,99397.34
2023-03-06T21:20:40.693Z,99397.11
2023-03-06T21:23:12.442Z,99398.13
2023-03-06T21:25:50.636Z,99396.20
2023-03-06T21:28:22.343Z,99393.48
2023-03-06T21:30:54.077Z,99396.38
2023-03-06T21:33:25.918Z,99388.77
2023-03-06T21:35:57.795Z,99384.47
2023-03-06T21:38:30.282Z,99388.70
2023-03-06T21:41:10.660Z,99388.70
2023-03-06T21:43:42.830Z,99387.71
2023-03-06T21:46:14.783Z,99391.16
2023-03-06T21:48:46.703Z,99389.26
2023-03-06T21:51:20.172Z,99388.38
2023-03-06T21:53:52.333Z,99388.30
2023-03-06T21:56:25.708Z,99384.23
2023-03-06T21:58:58.292Z,99390.60
2023-03-06T22:01:30.953Z,99391.16
2023-03-06T22:04:02.759Z,99391.14
2023-03-06T22:06:34.755Z,99389.97
2023-03-06T22:09:06.487Z,99386.58
2023-03-06T22:11:38.193Z,99382.48
2023-03-06T22:14:10.082Z,99384.04
2023-03-06T22:16:41.817Z,99385.36
2023-03-06T22:19:13.495Z,99393.59
2023-03-06T22:21:45.186Z,99395.91
2023-03-06T22:24:17.046Z,99392.09
2023-03-06T22:26:48.690Z,99393.66
2023-03-06T22:29:20.362Z,99400.09
2023-03-06T22:31:52.220Z,99400.64
2023-03-06T22:34:23.866Z,99402.88
2023-03-06T22:36:55.707Z,99402.77
2023-03-06T22:39:27.498Z,99407.35
2023-03-06T22:41:59.311Z,99412.36
2023-03-06T22:44:30.989Z,99414.73
2023-03-06T22:47:02.660Z,99413.05
2023-03-06T22:49:34.350Z,99415.58
2023-03-06T22:52:06.306Z,99417.77
2023-03-06T22:54:38.525Z,99419.06
2023-03-06T22:57:10.209Z,99416.66
2023-03-06T22:59:41.970Z,99417.64
2023-03-06T23:02:13.719Z,99417.73
2023-03-06T23:04:46.029Z,99420.60
2023-03-06T23:07:17.824Z,99424.11
2023-03-06T23:09:49.480Z,99425.64
2023-03-06T23:12:41.640Z,99427.03
2023-03-06T23:15:31.532Z,99426.02
2023-03-06T23:18:21.737Z,99425.30
2023-03-06T23:21:13.062Z,99424.84
2023-03-06T23:24:03.822Z,99427.08
2023-03-06T23:26:35.577Z,99425.89
2023-03-06T23:29:07.259Z,99424.86
2023-03-06T23:31:39.100Z,99426.66
2023-03-06T23:34:12.265Z,99428.21
2023-03-06T23:36:43.966Z,99428.76
2023-03-06T23:39:16.743Z,99430.91
2023-03-06T23:41:48.556Z,99431.27
2023-03-06T23:44:20.371Z,99433.66
2023-03-06T23:46:52.060Z,99431.64
2023-03-06T23:49:23.928Z,99438.30
2023-03-06T23:51:55.630Z,99439.61
2023-03-06T23:54:27.560Z,99444.58
2023-03-06T23:56:59.276Z,99449.11
2023-03-06T23:59:31.064Z,99447.63
